Time;durP1;ratioP1;P1;durP2;ratioP2;P2;SDS_P1;SDS_P2;PMS_P1;PMS_P2;Temp;Humidity;BMP_temperature;BMP_pressure;BME280_temperature;BME280_humidity;BME280_pressure;Samples;Min_cycle;Max_cycle;Signal;HPM_P1;HPM_P2
2022/11/22 00:01:32;;;;;;;2.78;1.35;;;;;;;;;;4909946;29;20066;-64
2022/11/22 00:04:02;;;;;;;1.98;1.25;;;;;;;;;;4914514;29;20530;-64
2022/11/22 00:06:32;;;;;;;1.98;0.80;;;;;;;;;;4914677;29;20528;-63
2022/11/22 00:09:02;;;;;;;2.95;0.88;;;;;;;;;;4898671;29;20389;-64
2022/11/22 00:11:36;;;;;;;2.40;0.95;;;;;;;;;;4914887;29;20076;-63
2022/11/22 00:14:06;;;;;;;2.78;1.20;;;;;;;;;;4911883;29;20420;-66
2022/11/22 00:16:37;;;;;;;2.47;0.82;;;;;;;;;;4883223;29;20056;-64
2022/11/22 00:19:08;;;;;;;3.92;1.00;;;;;;;;;;4924348;29;20543;-64
2022/11/22 00:21:39;;;;;;;1.73;0.80;;;;;;;;;;4965106;28;20054;-64
2022/11/22 00:24:13;;;;;;;2.50;1.02;;;;;;;;;;5010935;28;20058;-63
2022/11/22 00:26:44;;;;;;;1.92;0.93;;;;;;;;;;4998097;28;20064;-63
2022/11/22 00:29:16;;;;;;;3.30;1.40;;;;;;;;;;5028145;28;20057;-63
2022/11/22 00:32:06;;;;;;;2.65;1.13;;;;;;;;;;4996638;28;20050;-63
2022/11/22 00:34:36;;;;;;;1.90;1.25;;;;;;;;;;4994454;28;20529;-63
2022/11/22 00:37:07;;;;;;;3.60;1.17;;;;;;;;;;5023913;28;20061;-65
2022/11/22 00:39:37;;;;;;;3.35;1.05;;;;;;;;;;5030212;28;20390;-63
2022/11/22 00:42:08;;;;;;;2.35;0.90;;;;;;;;;;4990295;28;20058;-63
2022/11/22 00:44:38;;;;;;;4.07;1.02;;;;;;;;;;4947446;29;20063;-63
2022/11/22 00:47:09;;;;;;;2.58;1.05;;;;;;;;;;4948331;28;20059;-64
2022/11/22 00:49:39;;;;;;;5.68;1.48;;;;;;;;;;4951876;29;20176;-63
2022/11/22 00:52:11;;;;;;;2.15;0.93;;;;;;;;;;4904285;29;20062;-64
2022/11/22 00:54:41;;;;;;;4.35;1.27;;;;;;;;;;4952079;29;20522;-64
2022/11/22 00:57:11;;;;;;;3.03;1.27;;;;;;;;;;4826296;29;20050;-63
2022/11/22 00:59:43;;;;;;;5.13;1.55;;;;;;;;;;4820907;29;20062;-63
2022/11/22 01:02:14;;;;;;;3.97;1.15;;;;;;;;;;4820907;29;20525;-63
2022/11/22 01:04:44;;;;;;;2.40;1.08;;;;;;;;;;4821105;29;20062;-63
2022/11/22 01:07:14;;;;;;;1.85;1.00;;;;;;;;;;4821239;29;20066;-63
2022/11/22 01:09:44;;;;;;;3.28;1.90;;;;;;;;;;4862829;29;20057;-63
2022/11/22 01:12:14;;;;;;;3.47;1.20;;;;;;;;;;4841691;29;20069;-63
2022/11/22 01:14:45;;;;;;;4.10;1.30;;;;;;;;;;4841768;29;20102;-63
2022/11/22 01:17:16;;;;;;;4.10;1.17;;;;;;;;;;4841818;29;20554;-63
2022/11/22 01:19:46;;;;;;;1.73;0.90;;;;;;;;;;4856966;29;20065;-63
2022/11/22 01:22:16;;;;;;;4.18;1.50;;;;;;;;;;4885167;29;20072;-63
2022/11/22 01:24:47;;;;;;;2.90;1.25;;;;;;;;;;4897676;29;20056;-64
2022/11/22 01:27:16;;;;;;;4.07;1.23;;;;;;;;;;4913260;29;20536;-63
2022/11/22 01:29:47;;;;;;;4.50;1.42;;;;;;;;;;4913463;29;20505;-65
2022/11/22 01:32:17;;;;;;;3.30;1.65;;;;;;;;;;4913622;29;20421;-64
2022/11/22 01:34:47;;;;;;;2.33;1.30;;;;;;;;;;4978838;28;20061;-64
2022/11/22 01:37:17;;;;;;;6.75;1.35;;;;;;;;;;5049373;28;20053;-64
2022/11/22 01:39:46;;;;;;;3.08;1.17;;;;;;;;;;5049398;28;20045;-64
2022/11/22 01:42:17;;;;;;;3.08;1.23;;;;;;;;;;5049432;28;20045;-64
2022/11/22 01:44:48;;;;;;;2.88;1.23;;;;;;;;;;5049115;28;20456;-64
2022/11/22 01:47:24;;;;;;;2.75;1.25;;;;;;;;;;5049335;28;20056;-63
2022/11/22 01:50:04;;;;;;;3.17;1.58;;;;;;;;;;5049250;28;20479;-63
2022/11/22 01:52:35;;;;;;;5.78;1.42;;;;;;;;;;5049452;28;20076;-63
2022/11/22 01:55:11;;;;;;;2.75;1.08;;;;;;;;;;5049220;28;20045;-63
2022/11/22 01:57:43;;;;;;;2.72;1.48;;;;;;;;;;5042420;28;20424;-63
2022/11/22 02:00:16;;;;;;;3.83;1.25;;;;;;;;;;5093545;28;20491;-68
2022/11/22 02:02:54;;;;;;;6.97;1.60;;;;;;;;;;5078480;28;20047;-69
2022/11/22 02:05:28;;;;;;;3.88;1.40;;;;;;;;;;4996368;28;20040;-68
2022/11/22 02:08:02;;;;;;;4.53;1.08;;;;;;;;;;5095735;28;20055;-66
2022/11/22 02:10:36;;;;;;;5.60;1.38;;;;;;;;;;5095897;28;20487;-64
2022/11/22 02:13:08;;;;;;;3.65;1.48;;;;;;;;;;5095452;28;20064;-64
2022/11/22 02:15:38;;;;;;;3.70;1.52;;;;;;;;;;5052892;28;20060;-64
2022/11/22 02:18:10;;;;;;;3.47;1.50;;;;;;;;;;5052694;28;20052;-64
2022/11/22 02:20:40;;;;;;;3.38;1.70;;;;;;;;;;5052893;28;20056;-64
2022/11/22 02:23:25;;;;;;;3.67;1.73;;;;;;;;;;5053058;28;20059;-63
2022/11/22 02:25:58;;;;;;;4.47;2.22;;;;;;;;;;5052785;28;20060;-64
2022/11/22 02:28:34;;;;;;;3.50;1.70;;;;;;;;;;5052825;28;20065;-64
2022/11/22 02:31:04;;;;;;;4.32;1.50;;;;;;;;;;5052862;28;20060;-64
2022/11/22 02:33:34;;;;;;;3.53;1.52;;;;;;;;;;5052555;28;20542;-64
2022/11/22 02:36:05;;;;;;;3.60;1.58;;;;;;;;;;5052654;28;20053;-64
2022/11/22 02:38:35;;;;;;;5.13;1.70;;;;;;;;;;5052528;28;20044;-66
2022/11/22 02:41:10;;;;;;;2.50;1.35;;;;;;;;;;5035626;28;20492;-67
2022/11/22 02:43:45;;;;;;;6.55;1.67;;;;;;;;;;5035533;28;20053;-63
2022/11/22 02:46:19;;;;;;;3.58;1.52;;;;;;;;;;5052285;28;20540;-63
2022/11/22 02:48:50;;;;;;;5.78;1.35;;;;;;;;;;5035332;28;20052;-64
2022/11/22 02:51:20;;;;;;;5.10;1.52;;;;;;;;;;5052333;28;20493;-63
2022/11/22 02:53:52;;;;;;;5.30;1.48;;;;;;;;;;5052263;28;20150;-64
2022/11/22 02:56:22;;;;;;;2.95;1.38;;;;;;;;;;5083850;28;20067;-65
2022/11/22 02:58:52;;;;;;;3.70;1.50;;;;;;;;;;5094518;28;20047;-68
2022/11/22 03:01:23;;;;;;;2.95;1.33;;;;;;;;;;5094916;28;20051;-65
2022/11/22 03:03:53;;;;;;;4.22;1.65;;;;;;;;;;5051764;28;20412;-64
2022/11/22 03:06:23;;;;;;;3.40;1.40;;;;;;;;;;5051733;28;20065;-64
2022/11/22 03:08:53;;;;;;;4.22;1.95;;;;;;;;;;5051995;28;20416;-63
2022/11/22 03:11:25;;;;;;;6.18;2.42;;;;;;;;;;5051952;28;20128;-63
2022/11/22 03:13:55;;;;;;;3.10;1.35;;;;;;;;;;5051582;28;20053;-63
2022/11/22 03:16:25;;;;;;;5.75;1.48;;;;;;;;;;5018664;28;20053;-63
2022/11/22 03:18:54;;;;;;;3.28;1.75;;;;;;;;;;5051704;28;20128;-62
2022/11/22 03:21:25;;;;;;;7.65;2.05;;;;;;;;;;5051984;28;20436;-63
2022/11/22 03:23:55;;;;;;;4.65;1.70;;;;;;;;;;5011666;28;20061;-63
2022/11/22 03:26:25;;;;;;;2.92;1.63;;;;;;;;;;4992571;28;20155;-62
2022/11/22 03:28:55;;;;;;;2.88;1.55;;;;;;;;;;4992274;28;20515;-62
2022/11/22 03:31:25;;;;;;;3.40;1.88;;;;;;;;;;4992177;28;20054;-62
2022/11/22 03:33:56;;;;;;;6.03;1.92;;;;;;;;;;4993705;28;20058;-62
2022/11/22 03:36:26;;;;;;;3.38;1.70;;;;;;;;;;4992011;28;20681;-62
2022/11/22 03:38:57;;;;;;;3.33;1.90;;;;;;;;;;4943785;28;20423;-63
2022/11/22 03:41:28;;;;;;;5.10;1.70;;;;;;;;;;4992330;28;20050;-64
2022/11/22 03:43:58;;;;;;;6.13;1.60;;;;;;;;;;4992268;28;20530;-64
2022/11/22 03:46:27;;;;;;;4.15;1.85;;;;;;;;;;4991970;28;20066;-63
2022/11/22 03:48:57;;;;;;;3.47;1.65;;;;;;;;;;4953139;28;20055;-64
2022/11/22 03:51:28;;;;;;;2.20;1.10;;;;;;;;;;4953375;28;20055;-64
2022/11/22 03:53:58;;;;;;;3.70;1.58;;;;;;;;;;4953134;28;20063;-66
2022/11/22 03:56:28;;;;;;;4.78;1.40;;;;;;;;;;4951841;28;20095;-68
2022/11/22 03:58:58;;;;;;;3.92;1.55;;;;;;;;;;4934066;29;20056;-64
2022/11/22 04:01:28;;;;;;;3.72;1.38;;;;;;;;;;4951453;28;20133;-66
2022/11/22 04:03:58;;;;;;;2.97;1.35;;;;;;;;;;4972196;28;20055;-64
2022/11/22 04:06:28;;;;;;;4.30;1.50;;;;;;;;;;4972215;28;20174;-62
2022/11/22 04:08:57;;;;;;;3.70;1.35;;;;;;;;;;4972274;28;20058;-62
2022/11/22 04:11:27;;;;;;;2.88;1.73;;;;;;;;;;4990416;28;20441;-62
2022/11/22 04:16:46;;;;;;;3.95;1.80;;;;;;;;;;5014383;28;20448;-63
2022/11/22 04:19:16;;;;;;;2.85;1.25;;;;;;;;;;5030800;28;20053;-63
2022/11/22 04:21:45;;;;;;;2.30;1.13;;;;;;;;;;5030771;28;20049;-62
2022/11/22 04:27:04;;;;;;;3.28;1.50;;;;;;;;;;5074315;28;20064;-64
2022/11/22 04:29:34;;;;;;;2.45;1.05;;;;;;;;;;5092853;28;20052;-64
2022/11/22 04:34:52;;;;;;;3.78;1.20;;;;;;;;;;5057461;28;20489;-63
2022/11/22 04:37:23;;;;;;;3.13;1.23;;;;;;;;;;5058142;28;20059;-64
2022/11/22 04:39:53;;;;;;;2.72;1.60;;;;;;;;;;5092723;28;20052;-64
2022/11/22 04:45:11;;;;;;;6.65;1.25;;;;;;;;;;5092736;28;20043;-63
2022/11/22 04:47:59;;;;;;;3.00;1.15;;;;;;;;;;5074959;28;20514;-66
2022/11/22 04:53:20;;;;;;;2.67;1.23;;;;;;;;;;5092872;28;20048;-64
2022/11/22 04:55:50;;;;;;;2.67;1.58;;;;;;;;;;5049897;28;20452;-65
2022/11/22 04:58:21;;;;;;;3.67;1.25;;;;;;;;;;5016769;28;20060;-66
2022/11/22 05:00:52;;;;;;;3.25;1.00;;;;;;;;;;5029760;28;20391;-67
2022/11/22 05:03:23;;;;;;;2.67;1.52;;;;;;;;;;4982055;28;20089;-67
2022/11/22 05:05:52;;;;;;;5.20;1.20;;;;;;;;;;5029929;28;20061;-66
2022/11/22 05:08:22;;;;;;;2.42;1.20;;;;;;;;;;5030049;28;20154;-67
2022/11/22 05:10:55;;;;;;;3.55;1.45;;;;;;;;;;4997101;28;20061;-65
2022/11/22 05:13:37;;;;;;;4.43;1.67;;;;;;;;;;4980631;28;20053;-64
2022/11/22 05:16:10;;;;;;;4.70;2.08;;;;;;;;;;5029790;28;20402;-64
2022/11/22 05:18:41;;;;;;;3.80;1.60;;;;;;;;;;5029322;28;20061;-64
2022/11/22 05:21:13;;;;;;;5.10;1.63;;;;;;;;;;5029562;28;20397;-65
2022/11/22 05:23:55;;;;;;;;;;;;;;;;;;5030088;28;20053;-64
2022/11/22 05:26:27;;;;;;;2.00;0.82;;;;;;;;;;4996826;28;20440;-63
2022/11/22 05:28:58;;;;;;;2.60;1.20;;;;;;;;;;5029441;28;20053;-64
2022/11/22 05:31:28;;;;;;;2.92;1.88;;;;;;;;;;5029401;28;20061;-65
2022/11/22 05:34:00;;;;;;;3.38;1.60;;;;;;;;;;5042922;28;20053;-66
2022/11/22 05:36:32;;;;;;;2.00;0.95;;;;;;;;;;5065506;28;20056;-64
2022/11/22 05:39:03;;;;;;;2.00;1.08;;;;;;;;;;5030478;28;20056;-64
2022/11/22 05:41:33;;;;;;;4.13;1.38;;;;;;;;;;5069446;28;20048;-63
2022/11/22 05:44:03;;;;;;;3.03;1.48;;;;;;;;;;5069487;28;20048;-63
2022/11/22 05:46:33;;;;;;;3.60;1.48;;;;;;;;;;5009318;28;20046;-62
2022/11/22 05:49:03;;;;;;;3.25;1.75;;;;;;;;;;4970190;28;20054;-62
2022/11/22 05:51:33;;;;;;;3.60;1.77;;;;;;;;;;4970431;28;20055;-63
2022/11/22 05:54:03;;;;;;;5.15;2.17;;;;;;;;;;4970437;28;20051;-63
2022/11/22 05:56:33;;;;;;;5.22;2.17;;;;;;;;;;4970481;28;20058;-62
2022/11/22 05:59:03;;;;;;;4.53;2.30;;;;;;;;;;4970228;28;20051;-63
2022/11/22 06:01:33;;;;;;;4.50;2.20;;;;;;;;;;4970594;28;20074;-63
2022/11/22 06:04:03;;;;;;;4.97;2.60;;;;;;;;;;4970345;28;20061;-62
2022/11/22 06:06:33;;;;;;;7.60;3.13;;;;;;;;;;4970446;28;20059;-62
2022/11/22 06:09:03;;;;;;;7.20;3.33;;;;;;;;;;4970569;28;20051;-63
2022/11/22 06:11:33;;;;;;;7.75;3.50;;;;;;;;;;4970296;28;20062;-62
2022/11/22 06:14:03;;;;;;;9.38;3.83;;;;;;;;;;4970105;28;20473;-63
2022/11/22 06:16:33;;;;;;;10.85;5.25;;;;;;;;;;4970614;28;20412;-62
2022/11/22 06:19:02;;;;;;;10.10;4.53;;;;;;;;;;4970207;28;20042;-63
2022/11/22 06:21:32;;;;;;;9.55;4.18;;;;;;;;;;4938323;28;20084;-63
2022/11/22 06:24:02;;;;;;;9.32;4.13;;;;;;;;;;4979799;28;20053;-63
2022/11/22 06:26:32;;;;;;;10.25;4.25;;;;;;;;;;5056437;28;20052;-62
2022/11/22 06:29:07;;;;;;;8.88;3.80;;;;;;;;;;5091315;28;20051;-63
2022/11/22 06:31:37;;;;;;;9.00;4.47;;;;;;;;;;5091606;28;20051;-63
2022/11/22 06:34:07;;;;;;;9.63;4.18;;;;;;;;;;5091418;28;20502;-62
2022/11/22 06:36:38;;;;;;;9.95;4.47;;;;;;;;;;5091409;28;20722;-62
2022/11/22 06:39:08;;;;;;;10.45;4.78;;;;;;;;;;5028737;28;20128;-62
2022/11/22 06:41:38;;;;;;;9.05;4.32;;;;;;;;;;5029180;28;20508;-62
2022/11/22 06:44:09;;;;;;;10.23;4.63;;;;;;;;;;5028899;28;20068;-62
2022/11/22 06:46:40;;;;;;;7.28;3.35;;;;;;;;;;4998486;28;20513;-62
2022/11/22 06:49:10;;;;;;;7.95;2.95;;;;;;;;;;5032588;28;20060;-62
2022/11/22 06:51:40;;;;;;;7.28;3.60;;;;;;;;;;4999650;28;20057;-61
2022/11/22 06:54:11;;;;;;;9.98;3.30;;;;;;;;;;5015830;28;20533;-63
2022/11/22 06:56:41;;;;;;;6.63;2.95;;;;;;;;;;5032069;28;20062;-64
2022/11/22 06:59:12;;;;;;;9.02;3.38;;;;;;;;;;5016119;28;20065;-62
2022/11/22 07:01:42;;;;;;;5.47;2.45;;;;;;;;;;4999419;28;20053;-62
2022/11/22 07:04:12;;;;;;;4.57;2.15;;;;;;;;;;5032121;28;20053;-63
2022/11/22 07:06:43;;;;;;;4.13;1.90;;;;;;;;;;4999526;28;20061;-63
2022/11/22 07:09:13;;;;;;;4.43;1.80;;;;;;;;;;5012255;28;20056;-62
2022/11/22 07:11:43;;;;;;;3.97;1.70;;;;;;;;;;5012279;28;20077;-62
2022/11/22 07:14:13;;;;;;;3.05;1.25;;;;;;;;;;4996053;28;20062;-62
2022/11/22 07:16:43;;;;;;;3.35;1.40;;;;;;;;;;5021544;28;20057;-62
2022/11/22 07:19:12;;;;;;;3.65;1.30;;;;;;;;;;5031905;28;20045;-62
2022/11/22 07:21:43;;;;;;;2.72;1.15;;;;;;;;;;5031974;28;20057;-63
2022/11/22 07:24:13;;;;;;;2.00;1.13;;;;;;;;;;5032063;28;20045;-62
2022/11/22 07:26:44;;;;;;;4.85;1.30;;;;;;;;;;4998916;28;20049;-62
2022/11/22 07:29:14;;;;;;;2.53;1.13;;;;;;;;;;4999772;28;20060;-62
2022/11/22 07:31:45;;;;;;;3.05;1.23;;;;;;;;;;5031965;28;20189;-62
2022/11/22 07:34:15;;;;;;;2.95;0.98;;;;;;;;;;5031749;28;20064;-63
2022/11/22 07:36:45;;;;;;;3.40;1.05;;;;;;;;;;5031657;28;20543;-63
2022/11/22 07:39:16;;;;;;;2.03;1.10;;;;;;;;;;4998872;28;20528;-62
2022/11/22 07:41:46;;;;;;;2.38;0.93;;;;;;;;;;5031479;28;20049;-62
2022/11/22 07:44:16;;;;;;;3.15;1.42;;;;;;;;;;5051175;28;20064;-62
2022/11/22 07:46:47;;;;;;;3.03;1.42;;;;;;;;;;5070025;28;20631;-63
2022/11/22 07:49:18;;;;;;;2.58;1.50;;;;;;;;;;5041607;28;20633;-63
2022/11/22 07:51:48;;;;;;;2.55;1.20;;;;;;;;;;5091290;28;20531;-63
2022/11/22 07:54:18;;;;;;;3.17;1.10;;;;;;;;;;5091628;28;20071;-64
2022/11/22 07:56:48;;;;;;;2.65;1.10;;;;;;;;;;5091085;28;20083;-62
2022/11/22 07:59:17;;;;;;;2.38;1.20;;;;;;;;;;5042218;28;20056;-62
2022/11/22 08:01:47;;;;;;;2.83;1.30;;;;;;;;;;5091154;28;20507;-62
2022/11/22 08:04:18;;;;;;;6.25;1.40;;;;;;;;;;5074874;28;20048;-62
2022/11/22 08:06:48;;;;;;;2.65;1.10;;;;;;;;;;5091025;28;20048;-62
2022/11/22 08:09:19;;;;;;;4.57;1.15;;;;;;;;;;5091096;28;20546;-62
2022/11/22 08:11:49;;;;;;;2.45;1.02;;;;;;;;;;5091457;28;20424;-62
2022/11/22 08:14:18;;;;;;;3.90;1.58;;;;;;;;;;5091024;28;20412;-62
2022/11/22 08:16:48;;;;;;;4.40;1.70;;;;;;;;;;5040677;28;20487;-62
2022/11/22 08:19:19;;;;;;;2.40;1.30;;;;;;;;;;5074634;28;20055;-63
2022/11/22 08:21:49;;;;;;;5.75;1.42;;;;;;;;;;5047937;28;20057;-62
2022/11/22 08:24:26;;;;;;;3.00;1.60;;;;;;;;;;5037239;28;20377;-62
2022/11/22 08:26:57;;;;;;;3.47;1.30;;;;;;;;;;5054264;28;20056;-62
2022/11/22 08:29:27;;;;;;;4.10;1.30;;;;;;;;;;5070672;28;20044;-63
2022/11/22 08:31:58;;;;;;;3.28;1.20;;;;;;;;;;5030595;28;20060;-63
2022/11/22 08:34:29;;;;;;;2.28;1.10;;;;;;;;;;5030576;28;20543;-63
2022/11/22 08:36:58;;;;;;;3.40;1.20;;;;;;;;;;5030538;28;20061;-62
2022/11/22 08:39:29;;;;;;;3.80;1.30;;;;;;;;;;4991008;28;20057;-62
2022/11/22 08:41:59;;;;;;;2.13;1.10;;;;;;;;;;4991074;28;20069;-62
2022/11/22 08:44:29;;;;;;;3.25;1.10;;;;;;;;;;4991241;28;20063;-62
2022/11/22 08:46:59;;;;;;;2.50;1.25;;;;;;;;;;4991088;28;20046;-62
2022/11/22 08:49:29;;;;;;;2.30;1.10;;;;;;;;;;4990960;28;20470;-62
2022/11/22 08:51:59;;;;;;;4.05;1.02;;;;;;;;;;4990901;28;20061;-63
2022/11/22 08:54:29;;;;;;;5.65;1.60;;;;;;;;;;5010339;28;20042;-63
2022/11/22 08:57:05;;;;;;;3.15;1.27;;;;;;;;;;5010573;28;20061;-63
2022/11/22 09:02:24;;;;;;;3.42;1.55;;;;;;;;;;4977737;28;20061;-63
2022/11/22 09:04:54;;;;;;;2.47;1.30;;;;;;;;;;5010091;28;20058;-63
2022/11/22 09:07:24;;;;;;;4.63;1.42;;;;;;;;;;4961658;28;20057;-63
2022/11/22 09:10:15;;;;;;;3.88;1.48;;;;;;;;;;5040105;28;20197;-63
2022/11/22 09:12:45;;;;;;;2.65;1.40;;;;;;;;;;5049656;28;20417;-63
2022/11/22 09:15:16;;;;;;;7.20;1.73;;;;;;;;;;5029882;28;20057;-63
2022/11/22 09:17:46;;;;;;;3.75;1.45;;;;;;;;;;5044977;28;20432;-63
2022/11/22 09:20:16;;;;;;;2.22;1.27;;;;;;;;;;5049736;28;20049;-62
2022/11/22 09:22:47;;;;;;;3.70;2.38;;;;;;;;;;5049800;28;20412;-63
2022/11/22 09:25:17;;;;;;;5.13;1.98;;;;;;;;;;5049595;28;20397;-63
2022/11/22 09:27:47;;;;;;;3.63;1.42;;;;;;;;;;5049414;28;20496;-63
2022/11/22 09:30:17;;;;;;;2.90;1.42;;;;;;;;;;5029513;28;20056;-63
2022/11/22 09:32:46;;;;;;;5.55;1.52;;;;;;;;;;5013176;28;20050;-63
2022/11/22 09:35:19;;;;;;;6.90;1.45;;;;;;;;;;5029625;28;20049;-62
2022/11/22 09:37:49;;;;;;;3.45;1.38;;;;;;;;;;5029474;28;20534;-62
2022/11/22 09:40:19;;;;;;;2.97;1.60;;;;;;;;;;4990207;28;20061;-62
2022/11/22 09:43:15;;;;;;;4.20;2.20;;;;;;;;;;4974182;28;20061;-63
2022/11/22 09:46:01;;;;;;;5.75;2.10;;;;;;;;;;4951331;28;20054;-63
2022/11/22 09:48:50;;;;;;;3.28;1.75;;;;;;;;;;4951245;28;20126;-63
2022/11/22 09:51:28;;;;;;;4.43;1.58;;;;;;;;;;4951199;29;20070;-63
2022/11/22 09:54:03;;;;;;;3.22;1.52;;;;;;;;;;4922147;28;20086;-63
2022/11/22 09:56:34;;;;;;;2.78;1.63;;;;;;;;;;4954441;28;20062;-63
2022/11/22 09:59:07;;;;;;;2.92;1.50;;;;;;;;;;4970694;28;20201;-64
2022/11/22 10:01:44;;;;;;;3.55;1.80;;;;;;;;;;4970412;28;20055;-63
2022/11/22 10:04:34;;;;;;;4.53;1.80;;;;;;;;;;4970684;28;20070;-64
2022/11/22 10:07:11;;;;;;;5.15;1.52;;;;;;;;;;4976677;28;20058;-64
2022/11/22 10:09:51;;;;;;;6.82;1.80;;;;;;;;;;5009575;28;20576;-64
2022/11/22 10:12:40;;;;;;;5.47;2.03;;;;;;;;;;5009680;28;20523;-64
2022/11/22 10:15:31;;;;;;;5.82;1.30;;;;;;;;;;5009192;28;20054;-64
2022/11/22 10:18:36;;;;;;;4.18;1.45;;;;;;;;;;5030519;28;20052;-64
2022/11/22 10:21:13;;;;;;;4.13;1.70;;;;;;;;;;4971759;28;20065;-63
2022/11/22 10:23:46;;;;;;;3.67;1.98;;;;;;;;;;4960556;28;20065;-64
2022/11/22 10:26:24;;;;;;;;;;;;;;;;;;4994233;28;20457;-64
2022/11/22 10:29:20;;;;;;;3.28;1.25;;;;;;;;;;4993896;28;19929;-64
2022/11/22 10:31:59;;;;;;;3.85;1.90;;;;;;;;;;4993284;28;20580;-64
2022/11/22 10:34:52;;;;;;;5.32;1.92;;;;;;;;;;4993656;28;20581;-63
2022/11/22 10:37:47;;;;;;;4.68;1.92;;;;;;;;;;4961259;28;20060;-63
2022/11/22 10:40:53;;;;;;;5.30;2.13;;;;;;;;;;4945017;28;20054;-64
2022/11/22 10:43:28;;;;;;;5.55;2.15;;;;;;;;;;4954229;28;20058;-64
2022/11/22 10:46:24;;;;;;;5.47;2.03;;;;;;;;;;4922518;28;20069;-64
2022/11/22 10:49:17;;;;;;;4.25;2.00;;;;;;;;;;4906815;28;20051;-64
2022/11/22 10:52:06;;;;;;;4.32;1.95;;;;;;;;;;4891789;29;20389;-63
2022/11/22 10:54:54;;;;;;;3.45;1.73;;;;;;;;;;4922524;28;20047;-64
2022/11/22 10:57:42;;;;;;;4.68;2.00;;;;;;;;;;4973071;28;20403;-64
2022/11/22 11:00:26;;;;;;;4.32;2.20;;;;;;;;;;4999441;28;20045;-63
2022/11/22 11:03:05;;;;;;;4.18;1.80;;;;;;;;;;5032470;28;20045;-63
2022/11/22 11:05:41;;;;;;;;;;;;;;;;;;5032769;28;20072;-63
2022/11/22 11:09:06;;;;;;;5.97;1.65;;;;;;;;;;5032190;28;19932;-64
2022/11/22 11:11:58;;;;;;;4.82;2.20;;;;;;;;;;4979421;28;20054;-63
2022/11/22 11:14:40;;;;;;;4.32;2.42;;;;;;;;;;4992668;28;20066;-63
2022/11/22 11:17:16;;;;;;;7.05;2.42;;;;;;;;;;4960137;28;20061;-63
2022/11/22 11:19:49;;;;;;;6.15;2.30;;;;;;;;;;4992432;28;20061;-63
2022/11/22 11:22:23;;;;;;;4.68;2.35;;;;;;;;;;5051653;28;20085;-63
2022/11/22 11:25:32;;;;;;;6.15;2.15;;;;;;;;;;5051644;28;20057;-64
2022/11/22 11:28:28;;;;;;;3.45;1.70;;;;;;;;;;5051994;28;20053;-63
2022/11/22 11:31:08;;;;;;;4.45;1.95;;;;;;;;;;5051532;28;20195;-62
2022/11/22 11:33:41;;;;;;;4.38;1.70;;;;;;;;;;5050238;28;20041;-63
2022/11/22 11:36:23;;;;;;;2.38;1.27;;;;;;;;;;5002337;28;20071;-63
2022/11/22 11:38:56;;;;;;;4.45;1.70;;;;;;;;;;5051116;28;20064;-62
2022/11/22 11:41:31;;;;;;;3.03;1.70;;;;;;;;;;5051452;28;20052;-62
2022/11/22 11:44:30;;;;;;;3.25;1.42;;;;;;;;;;5051773;28;20056;-62
2022/11/22 11:47:02;;;;;;;3.95;1.02;;;;;;;;;;5054883;28;20436;-63
2022/11/22 11:49:34;;;;;;;2.92;1.13;;;;;;;;;;5058432;28;20499;-63
2022/11/22 11:52:12;;;;;;;1.42;0.88;;;;;;;;;;5094188;28;20040;-64
2022/11/22 11:54:49;;;;;;;1.88;0.80;;;;;;;;;;5093852;28;20032;-63
2022/11/22 11:57:35;;;;;;;2.22;0.80;;;;;;;;;;5093851;28;20048;-62
2022/11/22 12:00:20;;;;;;;3.22;1.10;;;;;;;;;;5093847;28;20075;-63
2022/11/22 12:02:57;;;;;;;4.25;0.75;;;;;;;;;;5040984;28;20052;-62
2022/11/22 12:05:31;;;;;;;2.65;0.90;;;;;;;;;;5093938;28;20067;-63
2022/11/22 12:08:01;;;;;;;1.10;0.65;;;;;;;;;;5093579;28;20055;-63
2022/11/22 12:10:56;;;;;;;3.65;0.80;;;;;;;;;;5057850;28;20060;-63
2022/11/22 12:13:49;;;;;;;2.05;0.77;;;;;;;;;;5057803;28;20056;-65
2022/11/22 12:16:46;;;;;;;2.67;0.63;;;;;;;;;;5093646;28;20043;-64
2022/11/22 12:19:31;;;;;;;1.63;0.98;;;;;;;;;;5093496;28;20052;-63
2022/11/22 12:25:33;;;;;;;1.33;0.50;;;;;;;;;;5093274;28;20043;-63
2022/11/22 12:28:18;;;;;;;1.50;0.40;;;;;;;;;;5057671;28;20047;-63
2022/11/22 12:31:02;;;;;;;3.33;0.70;;;;;;;;;;5092986;28;20051;-62
2022/11/22 12:33:46;;;;;;;3.10;0.77;;;;;;;;;;5093372;28;20055;-63
2022/11/22 12:36:33;;;;;;;2.55;0.57;;;;;;;;;;5093079;28;20051;-62
2022/11/22 12:39:06;;;;;;;1.15;0.50;;;;;;;;;;5093196;28;20044;-63
2022/11/22 12:41:39;;;;;;;1.48;0.70;;;;;;;;;;5057555;28;20056;-63
2022/11/22 12:44:20;;;;;;;3.38;0.90;;;;;;;;;;5092827;28;20059;-63
2022/11/22 12:46:55;;;;;;;1.42;0.50;;;;;;;;;;5092911;28;20047;-63
2022/11/22 12:49:37;;;;;;;1.13;0.50;;;;;;;;;;5092763;28;20048;-63
2022/11/22 12:52:36;;;;;;;1.45;0.63;;;;;;;;;;5092901;28;20048;-62
2022/11/22 12:55:24;;;;;;;0.77;0.60;;;;;;;;;;5010406;28;20064;-63
2022/11/22 12:58:18;;;;;;;3.20;0.70;;;;;;;;;;4977746;28;20065;-62
2022/11/22 13:01:08;;;;;;;2.80;0.55;;;;;;;;;;5010463;28;20454;-62
2022/11/22 13:04:08;;;;;;;0.57;0.47;;;;;;;;;;5010363;28;20184;-63
2022/11/22 13:07:04;;;;;;;1.13;0.80;;;;;;;;;;4932696;29;20083;-63
2022/11/22 13:09:40;;;;;;;4.43;0.50;;;;;;;;;;4932261;29;20063;-64
2022/11/22 13:12:31;;;;;;;1.65;0.60;;;;;;;;;;4898500;29;20052;-63
2022/11/22 13:15:01;;;;;;;;;;;;;;;;;;4932233;29;20512;-64
2022/11/22 13:17:37;;;;;;;0.60;0.40;;;;;;;;;;4912383;29;19923;-64
2022/11/22 13:20:34;;;;;;;1.02;0.45;;;;;;;;;;4918268;29;20056;-64
2022/11/22 13:23:41;;;;;;;1.05;0.40;;;;;;;;;;4866476;29;20060;-62
2022/11/22 13:26:41;;;;;;;1.27;1.05;;;;;;;;;;4913258;29;20067;-63
2022/11/22 13:29:27;;;;;;;0.52;0.40;;;;;;;;;;4912925;29;20048;-63
2022/11/22 13:32:18;;;;;;;1.17;0.50;;;;;;;;;;4931792;29;20417;-61
2022/11/22 13:35:13;;;;;;;4.82;0.50;;;;;;;;;;4900705;29;20056;-62
2022/11/22 13:37:47;;;;;;;1.77;0.40;;;;;;;;;;4932205;29;20254;-63
2022/11/22 13:40:41;;;;;;;1.67;0.50;;;;;;;;;;4932095;29;20068;-62
2022/11/22 13:43:14;;;;;;;1.77;0.50;;;;;;;;;;4925983;28;20055;-63
2022/11/22 13:45:57;;;;;;;2.03;0.60;;;;;;;;;;4953278;28;20046;-63
2022/11/22 13:48:39;;;;;;;0.88;0.75;;;;;;;;;;4954431;28;20443;-63
2022/11/22 13:51:14;;;;;;;0.60;0.40;;;;;;;;;;5029234;28;20057;-63
2022/11/22 13:53:48;;;;;;;0.65;0.38;;;;;;;;;;4980218;28;20053;-65
2022/11/22 13:56:21;;;;;;;1.70;0.40;;;;;;;;;;5031005;28;20053;-63
2022/11/22 13:59:14;;;;;;;2.13;0.60;;;;;;;;;;5000509;28;20540;-62
2022/11/22 14:01:45;;;;;;;0.90;0.52;;;;;;;;;;5000375;28;20056;-62
2022/11/22 14:04:25;;;;;;;1.42;0.52;;;;;;;;;;5026932;28;20049;-62
2022/11/22 14:07:00;;;;;;;1.05;0.55;;;;;;;;;;5043955;28;20545;-62
2022/11/22 14:09:40;;;;;;;1.13;0.43;;;;;;;;;;5036760;28;20505;-62
2022/11/22 14:12:10;;;;;;;1.45;0.50;;;;;;;;;;5036759;28;20064;-61
2022/11/22 14:14:55;;;;;;;1.38;0.50;;;;;;;;;;5053232;28;20049;-62
2022/11/22 14:17:52;;;;;;;2.95;0.80;;;;;;;;;;5053252;28;20048;-62
2022/11/22 14:20:47;;;;;;;1.85;0.95;;;;;;;;;;5053065;28;20075;-62
2022/11/22 14:23:38;;;;;;;4.72;1.00;;;;;;;;;;5052894;28;20060;-62
2022/11/22 14:26:22;;;;;;;5.45;0.93;;;;;;;;;;5004047;28;20060;-62
2022/11/22 14:29:07;;;;;;;2.38;0.90;;;;;;;;;;5053070;28;20072;-61
2022/11/22 14:31:39;;;;;;;4.82;0.95;;;;;;;;;;5052961;28;20045;-62
2022/11/22 14:34:22;;;;;;;3.80;1.13;;;;;;;;;;5057578;28;20063;-63
2022/11/22 14:37:14;;;;;;;1.75;0.40;;;;;;;;;;5008237;28;20052;-63
2022/11/22 14:39:51;;;;;;;1.65;0.50;;;;;;;;;;5072964;28;20060;-62
2022/11/22 14:42:46;;;;;;;2.22;0.47;;;;;;;;;;5084979;28;20048;-63
2022/11/22 14:45:24;;;;;;;3.33;0.50;;;;;;;;;;5080379;28;20511;-62
2022/11/22 14:48:18;;;;;;;0.80;0.40;;;;;;;;;;5115505;28;20047;-62
2022/11/22 14:50:54;;;;;;;0.82;0.60;;;;;;;;;;5115761;28;20044;-62
2022/11/22 14:53:48;;;;;;;0.52;0.40;;;;;;;;;;5079975;28;20056;-62
2022/11/22 14:56:24;;;;;;;3.20;0.80;;;;;;;;;;5075806;28;20044;-62
2022/11/22 14:59:14;;;;;;;0.75;0.50;;;;;;;;;;5052404;28;20060;-62
2022/11/22 15:02:14;;;;;;;0.57;0.40;;;;;;;;;;4992861;28;20053;-62
2022/11/22 15:05:17;;;;;;;1.10;0.60;;;;;;;;;;4992962;28;20065;-63
2022/11/22 15:08:44;;;;;;;0.85;0.50;;;;;;;;;;4992524;28;20522;-62
2022/11/22 15:11:40;;;;;;;1.27;0.60;;;;;;;;;;4992902;28;20061;-63
2022/11/22 15:14:55;;;;;;;1.35;0.60;;;;;;;;;;4976937;28;20070;-62
2022/11/22 15:17:29;;;;;;;2.45;1.13;;;;;;;;;;4992813;28;20407;-62
2022/11/22 15:20:38;;;;;;;1.10;0.52;;;;;;;;;;4992823;28;20069;-62
2022/11/22 15:23:28;;;;;;;1.67;0.82;;;;;;;;;;4992871;28;20058;-63
2022/11/22 15:26:21;;;;;;;0.95;0.60;;;;;;;;;;4992273;28;20195;-62
2022/11/22 15:29:17;;;;;;;2.05;1.05;;;;;;;;;;4967196;28;20050;-62
2022/11/22 15:32:12;;;;;;;1.33;0.75;;;;;;;;;;4992441;28;20050;-62
2022/11/22 15:35:03;;;;;;;1.42;0.70;;;;;;;;;;4992457;28;20051;-61
2022/11/22 15:37:53;;;;;;;;;;;;;;;;;;5032318;28;20529;-62
2022/11/22 15:40:50;;;;;;;1.05;0.70;;;;;;;;;;5071454;28;19927;-62
2022/11/22 15:43:40;;;;;;;1.92;0.50;;;;;;;;;;5037715;28;20053;-62
2022/11/22 15:46:30;;;;;;;;;;;;;;;;;;5051889;28;20053;-63
2022/11/22 15:49:22;;;;;;;1.67;0.70;;;;;;;;;;5051568;28;19943;-62
2022/11/22 15:52:27;;;;;;;2.88;0.50;;;;;;;;;;5011489;28;20073;-63
2022/11/22 15:55:19;;;;;;;2.05;0.57;;;;;;;;;;5051345;28;20064;-62
2022/11/22 15:58:12;;;;;;;1.10;0.60;;;;;;;;;;5024592;28;20053;-62
2022/11/22 16:00:44;;;;;;;0.88;0.70;;;;;;;;;;5034383;28;20056;-62
2022/11/22 16:03:23;;;;;;;;;;;;;;;;;;4987368;28;20154;-62